Time;durP1;ratioP1;P1;durP2;ratioP2;P2;SDS_P1;SDS_P2;PMS_P1;PMS_P2;Temp;Humidity;BMP_temperature;BMP_pressure;BME280_temperature;BME280_humidity;BME280_pressure;Samples;Min_cycle;Max_cycle;Signal;HPM_P1;HPM_P2
2023/06/30 00:02:06;;;;;;;1999.90;999.90;;;18.90;99.90;;;;;;5032297;28;20047;-72
2023/06/30 00:04:32;;;;;;;1999.90;999.90;;;18.90;99.90;;;;;;5032934;28;20456;-70
2023/06/30 00:06:59;;;;;;;1999.90;999.90;;;18.80;99.90;;;;;;5033861;28;20029;-72
2023/06/30 00:09:25;;;;;;;1999.90;999.90;;;18.80;99.90;;;;;;5033852;28;20048;-70
2023/06/30 00:11:52;;;;;;;1999.90;999.90;;;18.80;99.90;;;;;;5033457;28;20085;-72
2023/06/30 00:14:19;;;;;;;1999.90;999.90;;;18.70;99.90;;;;;;5033700;28;20049;-72
2023/06/30 00:16:45;;;;;;;1999.90;999.90;;;18.60;99.90;;;;;;5033748;28;20022;-72
2023/06/30 00:19:10;;;;;;;1999.90;999.90;;;18.60;99.90;;;;;;5033428;28;20492;-73
2023/06/30 00:21:41;;;;;;;1999.90;999.90;;;18.50;99.90;;;;;;5033934;28;20029;-70
2023/06/30 00:24:10;;;;;;;1999.90;999.90;;;18.50;99.90;;;;;;5033544;28;20092;-70
2023/06/30 00:26:36;;;;;;;1999.90;999.90;;;18.40;99.90;;;;;;5033145;28;20029;-72
2023/06/30 00:29:01;;;;;;;1999.90;999.90;;;18.40;99.90;;;;;;5032915;28;20033;-71
2023/06/30 00:31:27;;;;;;;1999.90;999.90;;;18.40;99.90;;;;;;5033261;28;20036;-70
2023/06/30 00:33:53;;;;;;;1999.90;999.90;;;18.40;99.90;;;;;;5033453;28;20439;-72
2023/06/30 00:36:19;;;;;;;1999.90;999.90;;;18.30;99.90;;;;;;5033842;28;20021;-70
2023/06/30 00:38:44;;;;;;;1999.90;999.90;;;18.40;99.90;;;;;;5032965;28;20630;-72
2023/06/30 00:41:11;;;;;;;1999.90;999.90;;;18.30;99.90;;;;;;5033319;28;20028;-72
2023/06/30 00:43:38;;;;;;;1999.90;999.90;;;18.30;99.90;;;;;;5033565;28;20039;-70
2023/06/30 00:46:04;;;;;;;1999.90;999.90;;;18.20;99.90;;;;;;5033123;28;20017;-70
2023/06/30 00:48:30;;;;;;;1999.90;999.90;;;18.10;99.90;;;;;;5033206;28;20033;-70
2023/06/30 00:50:56;;;;;;;1999.90;999.90;;;18.10;99.90;;;;;;5033028;28;20041;-70
2023/06/30 00:53:22;;;;;;;1999.90;999.90;;;18.00;99.90;;;;;;5033274;28;20492;-70
2023/06/30 00:55:50;;;;;;;1999.90;999.90;;;17.90;99.90;;;;;;5033301;28;20025;-70
2023/06/30 00:58:15;;;;;;;1999.90;999.90;;;17.80;99.90;;;;;;5033501;28;20017;-70
2023/06/30 01:00:41;;;;;;;1999.90;999.90;;;17.70;99.90;;;;;;5031721;28;20060;-70
2023/06/30 01:03:14;;;;;;;1999.90;999.90;;;17.70;99.90;;;;;;5032815;28;20030;-70
2023/06/30 01:06:06;;;;;;;1999.90;999.90;;;17.70;99.90;;;;;;5033240;28;20104;-71
2023/06/30 01:08:34;;;;;;;1999.90;999.90;;;17.60;99.90;;;;;;5032476;28;20084;-70
2023/06/30 01:11:01;;;;;;;1999.90;999.90;;;17.50;99.90;;;;;;5032358;28;20374;-71
2023/06/30 01:13:31;;;;;;;1999.90;999.90;;;17.40;99.90;;;;;;5032739;28;20136;-70
2023/06/30 01:15:58;;;;;;;1999.90;999.90;;;17.40;99.90;;;;;;5032830;28;20097;-72
2023/06/30 01:18:25;;;;;;;1999.90;999.90;;;17.30;99.90;;;;;;5032945;28;20060;-70
2023/06/30 01:20:52;;;;;;;1999.90;999.90;;;17.20;99.90;;;;;;5032807;28;20013;-70
2023/06/30 01:23:28;;;;;;;1999.90;999.90;;;17.10;99.90;;;;;;5033201;28;20132;-70
2023/06/30 01:25:55;;;;;;;1999.90;999.90;;;17.10;99.90;;;;;;5031835;28;20025;-72
2023/06/30 01:28:20;;;;;;;1999.90;999.90;;;17.00;99.90;;;;;;5032862;28;20037;-70
2023/06/30 01:30:46;;;;;;;1999.90;999.90;;;17.00;99.90;;;;;;5035378;28;20067;-72
2023/06/30 01:33:14;;;;;;;1999.90;999.90;;;16.90;99.90;;;;;;5036750;28;20481;-72
2023/06/30 01:35:39;;;;;;;1999.90;999.90;;;16.90;99.90;;;;;;5036582;28;20032;-70
2023/06/30 01:38:05;;;;;;;1999.90;999.90;;;16.80;99.90;;;;;;5036509;28;20026;-71
2023/06/30 01:40:31;;;;;;;1999.90;999.90;;;16.80;99.90;;;;;;5036576;28;20076;-70
2023/06/30 01:42:57;;;;;;;1999.90;999.90;;;16.70;99.90;;;;;;5035078;28;20030;-72
2023/06/30 01:45:28;;;;;;;1999.90;999.90;;;16.70;99.90;;;;;;5036528;28;20468;-70
2023/06/30 01:47:55;;;;;;;1999.90;999.90;;;16.60;99.90;;;;;;5051710;28;20503;-70
2023/06/30 01:50:21;;;;;;;1999.90;999.90;;;16.50;99.90;;;;;;5036267;28;20075;-70
2023/06/30 01:52:47;;;;;;;1999.90;999.90;;;16.50;99.90;;;;;;5036530;28;20021;-70
2023/06/30 01:55:13;;;;;;;1999.90;999.90;;;16.40;99.90;;;;;;5036356;28;20387;-70
2023/06/30 01:57:38;;;;;;;1999.90;999.90;;;16.40;99.90;;;;;;5036480;28;20025;-69
2023/06/30 02:00:05;;;;;;;1999.90;999.90;;;16.30;99.90;;;;;;5036138;28;20476;-70
2023/06/30 02:02:31;;;;;;;1999.90;999.90;;;16.30;99.90;;;;;;5035899;28;20148;-71
2023/06/30 02:04:57;;;;;;;1999.90;999.90;;;16.20;99.90;;;;;;5036343;28;20111;-69
2023/06/30 02:07:23;;;;;;;1999.90;999.90;;;16.20;99.90;;;;;;5034559;28;20437;-70
2023/06/30 02:09:49;;;;;;;1999.90;999.90;;;16.20;99.90;;;;;;5035801;28;20120;-69
2023/06/30 02:12:15;;;;;;;1999.90;999.90;;;16.20;99.90;;;;;;5036099;28;20492;-71
2023/06/30 02:14:41;;;;;;;1999.90;999.90;;;16.10;99.90;;;;;;5035534;28;20049;-71
2023/06/30 02:17:10;;;;;;;1999.90;999.90;;;16.10;99.90;;;;;;5034532;28;20558;-71
2023/06/30 02:19:35;;;;;;;1999.90;999.90;;;16.00;99.90;;;;;;5036280;28;20468;-70
2023/06/30 02:22:01;;;;;;;1999.90;999.90;;;16.00;99.90;;;;;;5036310;28;20033;-71
2023/06/30 02:24:27;;;;;;;1999.90;999.90;;;16.00;99.90;;;;;;5035741;28;20399;-72
2023/06/30 02:26:52;;;;;;;1999.90;999.90;;;16.00;99.90;;;;;;5036088;28;20065;-70
2023/06/30 02:29:20;;;;;;;1999.90;999.90;;;15.90;99.90;;;;;;5036219;28;20048;-71
2023/06/30 02:31:46;;;;;;;1999.90;999.90;;;15.80;99.90;;;;;;5034681;28;20037;-70
2023/06/30 02:34:11;;;;;;;1999.90;999.90;;;15.80;99.90;;;;;;5035372;28;20522;-70
2023/06/30 02:36:37;;;;;;;1999.90;999.90;;;15.80;99.90;;;;;;5035790;28;20034;-71
2023/06/30 02:39:03;;;;;;;1999.90;999.90;;;15.70;99.90;;;;;;5035798;28;20029;-72
2023/06/30 02:41:28;;;;;;;1999.90;999.90;;;15.70;99.90;;;;;;5034184;28;20489;-70
2023/06/30 02:43:54;;;;;;;1999.90;999.90;;;15.70;99.90;;;;;;5035400;28;20032;-70
2023/06/30 02:46:19;;;;;;;1999.90;999.90;;;15.70;99.90;;;;;;5035403;28;20032;-69
2023/06/30 02:48:45;;;;;;;1999.90;999.90;;;15.70;99.90;;;;;;5035189;28;20404;-72
2023/06/30 02:51:10;;;;;;;1999.90;999.90;;;15.70;99.90;;;;;;5033282;28;20052;-71
2023/06/30 02:53:37;;;;;;;1999.90;999.90;;;15.80;99.90;;;;;;5035338;28;20030;-70
2023/06/30 02:56:03;;;;;;;1999.90;999.90;;;15.80;99.90;;;;;;5035443;28;20025;-71
2023/06/30 02:58:28;;;;;;;1999.90;999.90;;;15.90;99.90;;;;;;5035460;28;20101;-69
2023/06/30 03:00:56;;;;;;;1999.90;999.90;;;15.90;99.90;;;;;;5034737;28;20383;-72
2023/06/30 03:03:22;;;;;;;1999.90;999.90;;;15.90;99.90;;;;;;5034896;28;20029;-70
2023/06/30 03:05:48;;;;;;;1999.90;999.90;;;15.90;99.90;;;;;;5035118;28;20025;-70
2023/06/30 03:08:13;;;;;;;1999.90;999.90;;;15.90;99.90;;;;;;5035139;28;20037;-70
2023/06/30 03:10:39;;;;;;;1999.90;999.90;;;15.80;99.90;;;;;;5033566;28;20029;-70
2023/06/30 03:13:05;;;;;;;1999.90;999.90;;;15.80;99.90;;;;;;5034788;28;20033;-69
2023/06/30 03:15:30;;;;;;;1999.90;999.90;;;15.80;99.90;;;;;;5034960;28;20080;-71
2023/06/30 03:17:56;;;;;;;1999.90;999.90;;;15.70;99.90;;;;;;5034609;28;20025;-71
2023/06/30 03:20:22;;;;;;;1999.90;999.90;;;15.60;99.90;;;;;;5035087;28;20053;-74
2023/06/30 03:22:48;;;;;;;1999.90;999.90;;;15.60;99.90;;;;;;5034051;28;20034;-70
2023/06/30 03:25:13;;;;;;;1999.90;999.90;;;15.50;99.90;;;;;;5031968;28;20022;-70
2023/06/30 03:27:40;;;;;;;1999.90;999.90;;;15.40;99.90;;;;;;5034417;28;20040;-70
2023/06/30 03:30:06;;;;;;;1999.90;999.90;;;15.40;99.90;;;;;;5034871;28;20079;-71
2023/06/30 03:32:32;;;;;;;1999.90;999.90;;;15.30;99.90;;;;;;5033362;28;20033;-70
2023/06/30 03:34:59;;;;;;;1999.90;999.90;;;15.20;99.90;;;;;;5034445;28;20068;-69
2023/06/30 03:37:25;;;;;;;1999.90;999.90;;;15.10;99.90;;;;;;5034333;28;20032;-70
2023/06/30 03:39:51;;;;;;;1999.90;999.90;;;15.10;99.90;;;;;;5032857;28;20033;-71
2023/06/30 03:42:16;;;;;;;1999.90;999.90;;;15.00;99.90;;;;;;5034427;28;20029;-71
2023/06/30 03:44:42;;;;;;;1999.90;999.90;;;15.00;99.90;;;;;;5034207;28;20029;-69
2023/06/30 03:47:07;;;;;;;1999.90;999.90;;;14.90;99.90;;;;;;5034047;28;20476;-71
2023/06/30 03:49:33;;;;;;;1999.90;999.90;;;14.90;99.90;;;;;;5034181;28;20033;-69
2023/06/30 03:51:59;;;;;;;1999.90;999.90;;;14.90;99.90;;;;;;5033724;28;20029;-71
2023/06/30 03:54:24;;;;;;;1999.90;999.90;;;14.80;99.90;;;;;;5034413;28;20531;-70
2023/06/30 03:56:50;;;;;;;1999.90;999.90;;;14.80;99.90;;;;;;5034315;28;20045;-70
2023/06/30 03:59:16;;;;;;;1999.90;999.90;;;14.70;99.90;;;;;;5033802;28;20033;-70
2023/06/30 04:01:42;;;;;;;1999.90;999.90;;;14.70;99.90;;;;;;5033492;28;20018;-69
2023/06/30 04:04:07;;;;;;;1999.90;999.90;;;14.60;99.90;;;;;;5034075;28;20029;-70
2023/06/30 04:06:33;;;;;;;1999.90;999.90;;;14.60;99.90;;;;;;5034125;28;20108;-71
2023/06/30 04:09:02;;;;;;;1999.90;999.90;;;14.60;99.90;;;;;;5034076;28;20024;-70
2023/06/30 04:11:28;;;;;;;1999.90;999.90;;;14.60;99.90;;;;;;5033542;28;20032;-70
2023/06/30 04:13:54;;;;;;;1999.90;999.90;;;14.70;99.90;;;;;;5033411;28;20045;-70
2023/06/30 04:16:19;;;;;;;1999.90;999.90;;;14.60;99.90;;;;;;5033605;28;20075;-71
2023/06/30 04:18:45;;;;;;;1999.90;999.90;;;14.70;99.90;;;;;;5034111;28;20036;-71
2023/06/30 04:21:11;;;;;;;1999.90;999.90;;;14.70;99.90;;;;;;5033244;28;20024;-70
2023/06/30 04:23:37;;;;;;;1999.90;999.90;;;14.70;99.90;;;;;;5033721;28;20029;-70
2023/06/30 04:26:04;;;;;;;1999.90;999.90;;;14.70;99.90;;;;;;5032122;28;20037;-69
2023/06/30 04:28:30;;;;;;;1999.90;999.90;;;14.70;99.90;;;;;;5033454;28;20036;-70
2023/06/30 04:30:55;;;;;;;1999.90;999.90;;;14.80;99.90;;;;;;5033476;28;20034;-70
2023/06/30 04:33:21;;;;;;;1999.90;999.90;;;14.80;99.90;;;;;;5032347;28;20037;-71
2023/06/30 04:35:47;;;;;;;1999.90;999.90;;;14.80;99.90;;;;;;5033301;28;20373;-70
2023/06/30 04:38:12;;;;;;;1999.90;999.90;;;14.90;99.90;;;;;;5031649;28;20116;-70
2023/06/30 04:40:38;;;;;;;1999.90;999.90;;;15.00;99.90;;;;;;5032978;28;20045;-70
2023/06/30 04:43:11;;;;;;;1999.90;999.90;;;15.10;99.90;;;;;;5043779;28;20457;-70
2023/06/30 04:45:36;;;;;;;;;;;15.10;99.90;;;;;;5029681;28;20022;-70
2023/06/30 04:48:02;;;;;;;1999.90;999.90;;;15.20;99.90;;;;;;5044451;28;19916;-70
2023/06/30 04:50:27;;;;;;;1999.90;999.90;;;15.20;99.90;;;;;;5052499;28;20392;-70
2023/06/30 04:52:53;;;;;;;1999.90;999.90;;;15.30;99.90;;;;;;5052863;28;20393;-70
2023/06/30 04:55:19;;;;;;;1999.90;999.90;;;15.30;99.90;;;;;;5053488;28;20025;-70
2023/06/30 04:57:44;;;;;;;1999.90;999.90;;;15.40;99.90;;;;;;5053150;28;20130;-71
2023/06/30 05:00:10;;;;;;;1999.90;999.90;;;15.50;99.90;;;;;;5052987;28;20021;-71
2023/06/30 05:02:36;;;;;;;1999.90;999.90;;;15.60;99.90;;;;;;5044290;28;20459;-70
2023/06/30 05:05:02;;;;;;;1999.90;999.90;;;15.60;99.90;;;;;;5035998;28;20030;-70
2023/06/30 05:07:27;;;;;;;1999.90;999.90;;;15.60;99.90;;;;;;5037124;28;20083;-70
2023/06/30 05:09:53;;;;;;;1999.90;999.90;;;15.60;99.90;;;;;;5037131;28;20025;-70
2023/06/30 05:12:18;;;;;;;1999.90;999.90;;;15.70;99.90;;;;;;5041486;28;20024;-70
2023/06/30 05:14:44;;;;;;;1999.90;999.90;;;15.80;99.90;;;;;;5056282;28;20092;-70
2023/06/30 05:17:10;;;;;;;1999.90;999.90;;;15.80;99.90;;;;;;5056623;28;20112;-70
2023/06/30 05:19:36;;;;;;;1999.90;999.90;;;15.80;99.90;;;;;;5053743;28;20475;-70
2023/06/30 05:22:01;;;;;;;1999.90;999.90;;;15.80;99.90;;;;;;5038034;28;20108;-70
2023/06/30 05:24:27;;;;;;;1999.90;999.90;;;15.80;99.90;;;;;;5047350;28;20065;-71
2023/06/30 05:26:54;;;;;;;1999.90;999.90;;;15.80;99.90;;;;;;5040674;28;20066;-71
2023/06/30 05:29:20;;;;;;;1999.90;999.90;;;15.80;99.90;;;;;;5056483;28;20079;-72
2023/06/30 05:31:46;;;;;;;1999.90;999.90;;;15.80;99.90;;;;;;5056244;28;20039;-70
2023/06/30 05:34:15;;;;;;;1999.90;999.90;;;15.80;99.90;;;;;;5050275;28;20025;-70
2023/06/30 05:36:43;;;;;;;1999.90;999.90;;;15.80;99.90;;;;;;5038929;28;20025;-71
2023/06/30 05:39:09;;;;;;;1999.90;999.90;;;15.90;99.90;;;;;;5056212;28;20094;-70
2023/06/30 05:41:35;;;;;;;1999.90;999.90;;;15.90;99.90;;;;;;5055831;28;20033;-70
2023/06/30 05:44:01;;;;;;;1999.90;999.90;;;15.90;99.90;;;;;;5054704;28;20495;-70
2023/06/30 05:46:26;;;;;;;1999.90;999.90;;;16.00;99.90;;;;;;5055917;28;20064;-70
2023/06/30 05:48:52;;;;;;;1999.90;999.90;;;16.00;99.90;;;;;;5026202;28;20037;-70
2023/06/30 05:51:18;;;;;;;1999.90;999.90;;;16.00;99.90;;;;;;5015361;28;20100;-70
2023/06/30 05:53:43;;;;;;;1999.90;999.90;;;16.00;99.90;;;;;;5034699;28;20025;-70
2023/06/30 05:56:09;;;;;;;1999.90;999.90;;;16.10;99.90;;;;;;5035737;28;20434;-70
2023/06/30 05:58:37;;;;;;;1999.90;999.90;;;16.10;99.90;;;;;;5052697;28;20036;-70
2023/06/30 06:01:03;;;;;;;1999.90;999.90;;;16.20;99.90;;;;;;5055172;28;20398;-71
2023/06/30 06:03:30;;;;;;;1999.90;999.90;;;16.30;99.90;;;;;;5038697;28;20033;-71
2023/06/30 06:05:57;;;;;;;1999.90;999.90;;;16.20;99.90;;;;;;5035866;28;20083;-71
2023/06/30 06:08:23;;;;;;;1999.90;999.90;;;16.20;99.90;;;;;;5035798;28;20064;-70
2023/06/30 06:10:48;;;;;;;1999.90;999.90;;;16.30;99.90;;;;;;5046093;28;20057;-70
2023/06/30 06:13:34;;;;;;;1999.90;999.90;;;16.40;99.90;;;;;;5038974;28;20084;-70
2023/06/30 06:16:00;;;;;;;1999.90;999.90;;;16.50;99.90;;;;;;5045926;28;20044;-70
2023/06/30 06:18:26;;;;;;;1999.90;999.90;;;16.60;99.90;;;;;;5043287;28;20037;-71
2023/06/30 06:20:52;;;;;;;1999.90;999.90;;;16.60;99.90;;;;;;5049987;28;20148;-71
2023/06/30 06:23:17;;;;;;;1999.90;999.90;;;16.60;99.90;;;;;;5038700;28;20037;-70
2023/06/30 06:25:43;;;;;;;1999.90;999.90;;;16.60;99.90;;;;;;5035998;28;20030;-70
2023/06/30 06:28:09;;;;;;;1999.90;999.90;;;16.70;99.90;;;;;;5046337;28;20487;-70
2023/06/30 06:30:34;;;;;;;1999.90;999.90;;;16.80;99.90;;;;;;5036867;28;20105;-71
2023/06/30 06:33:00;;;;;;;1999.90;999.90;;;16.80;99.90;;;;;;5042551;28;20080;-70
2023/06/30 06:35:25;;;;;;;1999.90;999.90;;;16.80;99.90;;;;;;5034913;28;20040;-70
2023/06/30 06:37:51;;;;;;;1999.90;999.90;;;16.80;99.90;;;;;;5048988;28;20188;-70
2023/06/30 06:40:16;;;;;;;1999.90;999.90;;;16.90;99.90;;;;;;5045480;28;20109;-70
2023/06/30 06:42:42;;;;;;;1999.90;999.90;;;17.00;99.90;;;;;;5043641;28;20040;-71
2023/06/30 06:45:08;;;;;;;1999.90;999.90;;;17.00;99.90;;;;;;5036744;28;20026;-71
2023/06/30 06:48:11;;;;;;;1999.90;999.90;;;17.00;99.90;;;;;;5044958;28;20019;-70
2023/06/30 06:50:36;;;;;;;1999.90;999.90;;;17.20;99.90;;;;;;5042409;28;20029;-70
2023/06/30 06:53:02;;;;;;;1999.90;999.90;;;17.40;99.90;;;;;;5038990;28;20033;-70
2023/06/30 06:55:28;;;;;;;1999.90;999.90;;;17.70;99.90;;;;;;5032346;28;20111;-71
2023/06/30 06:57:54;;;;;;;1999.90;999.90;;;17.70;99.90;;;;;;5043337;28;20501;-71
2023/06/30 07:00:20;;;;;;;1999.90;999.90;;;17.80;99.90;;;;;;5038707;28;20032;-70
2023/06/30 07:02:46;;;;;;;1999.90;999.90;;;17.90;99.90;;;;;;5043283;28;20060;-71
2023/06/30 07:05:11;;;;;;;1999.90;999.90;;;18.20;99.90;;;;;;5037567;28;20107;-70
2023/06/30 07:07:37;;;;;;;1999.90;999.90;;;18.30;99.90;;;;;;5039245;28;20025;-71
2023/06/30 07:10:03;;;;;;;1999.90;999.90;;;18.20;99.90;;;;;;5029811;28;20038;-70
2023/06/30 07:12:29;;;;;;;1999.90;999.90;;;18.10;99.90;;;;;;5030028;28;20103;-71
2023/06/30 07:14:54;;;;;;;1999.90;999.90;;;18.30;99.90;;;;;;5033027;28;20042;-70
2023/06/30 07:17:21;;;;;;;1999.90;999.90;;;18.40;99.90;;;;;;5038361;28;20029;-70
2023/06/30 07:19:46;;;;;;;1999.90;999.90;;;18.60;99.90;;;;;;5033071;28;20041;-71
2023/06/30 07:22:12;;;;;;;1999.90;999.90;;;18.90;99.90;;;;;;5044688;28;20052;-71
2023/06/30 07:24:38;;;;;;;1999.90;999.90;;;18.90;99.90;;;;;;5032938;28;20033;-71
2023/06/30 07:27:04;;;;;;;1999.90;999.90;;;19.10;99.90;;;;;;5031242;28;20022;-70
2023/06/30 07:29:29;;;;;;;1999.90;999.90;;;19.10;99.90;;;;;;5034975;28;20471;-70
2023/06/30 07:31:55;;;;;;;1999.90;999.90;;;19.30;99.90;;;;;;5043362;28;20088;-70
2023/06/30 07:34:23;;;;;;;1999.90;999.90;;;19.50;99.90;;;;;;5032679;28;20543;-71
2023/06/30 07:36:52;;;;;;;1999.90;999.90;;;20.60;99.90;;;;;;5035807;28;20033;-71
2023/06/30 07:39:18;;;;;;;1999.90;999.90;;;22.10;99.90;;;;;;5044062;28;20040;-71
2023/06/30 07:41:43;;;;;;;1999.90;999.90;;;23.50;99.90;;;;;;5034151;28;20411;-72
2023/06/30 07:44:11;;;;;;;1999.90;999.90;;;24.00;99.90;;;;;;5038728;28;20071;-72
2023/06/30 07:46:37;;;;;;;1999.90;999.90;;;24.40;99.90;;;;;;5040615;28;20507;-72
2023/06/30 07:49:03;;;;;;;1999.90;999.90;;;24.30;99.90;;;;;;5042449;28;20036;-71
2023/06/30 07:51:32;;;;;;;1999.90;999.90;;;24.00;99.90;;;;;;5048038;28;20087;-71
2023/06/30 07:53:57;;;;;;;1999.90;999.90;;;24.10;99.90;;;;;;5039730;28;20071;-71
2023/06/30 07:56:23;;;;;;;1999.90;999.90;;;25.10;99.90;;;;;;5036484;28;20484;-71
2023/06/30 07:58:49;;;;;;;1999.90;999.90;;;25.50;99.90;;;;;;5023154;28;20029;-72
2023/06/30 08:01:14;;;;;;;1999.90;999.90;;;25.80;99.40;;;;;;5037465;28;20028;-72
2023/06/30 08:03:40;;;;;;;1999.90;999.90;;;26.00;97.90;;;;;;5042487;28;20033;-71
2023/06/30 08:06:06;;;;;;;1999.90;999.90;;;25.90;98.60;;;;;;5037187;28;20412;-72
2023/06/30 08:08:32;;;;;;;1999.90;999.90;;;26.60;98.00;;;;;;5034394;28;20127;-72
2023/06/30 08:10:58;;;;;;;1999.90;999.90;;;26.90;98.00;;;;;;5044271;28;20384;-71
2023/06/30 08:13:24;;;;;;;1999.90;999.90;;;26.90;96.70;;;;;;5044389;28;20156;-72
2023/06/30 08:15:50;;;;;;;1999.90;999.90;;;27.00;95.60;;;;;;5022090;28;20528;-73
2023/06/30 08:18:16;;;;;;;1999.90;999.90;;;27.20;94.10;;;;;;5040089;28;20100;-72
2023/06/30 08:20:41;;;;;;;1999.90;999.90;;;28.30;94.70;;;;;;5040840;28;20097;-72
2023/06/30 08:23:07;;;;;;;1999.90;999.90;;;28.50;95.00;;;;;;5036951;28;20105;-72
2023/06/30 08:25:33;;;;;;;1999.90;999.90;;;28.40;93.70;;;;;;5033594;28;20389;-73
2023/06/30 08:27:58;;;;;;;1999.90;999.90;;;28.10;93.60;;;;;;5038504;28;20017;-73
2023/06/30 08:30:24;;;;;;;1999.90;999.90;;;28.50;95.20;;;;;;5039750;28;20028;-72
2023/06/30 08:32:50;;;;;;;1999.90;999.90;;;27.50;94.40;;;;;;5035868;28;20060;-73
2023/06/30 08:35:16;;;;;;;1999.90;999.90;;;27.50;96.00;;;;;;5034961;28;20467;-73
2023/06/30 08:37:42;;;;;;;1999.90;999.90;;;27.90;95.70;;;;;;5043994;28;20492;-72
2023/06/30 08:40:09;;;;;;;1999.90;999.90;;;28.20;94.90;;;;;;5033601;28;20048;-73
2023/06/30 08:42:36;;;;;;;1999.90;999.90;;;28.80;94.90;;;;;;5039162;28;20063;-72
2023/06/30 08:45:03;;;;;;;1999.90;999.90;;;27.80;93.60;;;;;;5035910;28;20040;-72
2023/06/30 08:47:32;;;;;;;1999.90;999.90;;;28.00;94.60;;;;;;5041864;28;20033;-73
2023/06/30 08:49:58;;;;;;;1999.90;999.90;;;28.70;95.00;;;;;;5041163;28;20078;-73
2023/06/30 08:52:25;;;;;;;1999.90;999.90;;;28.50;93.20;;;;;;5029020;28;20037;-71
2023/06/30 08:54:50;;;;;;;1999.90;999.90;;;29.10;93.20;;;;;;5032735;28;20159;-72
2023/06/30 08:57:17;;;;;;;1999.90;999.90;;;28.60;93.90;;;;;;5033329;28;20117;-71
2023/06/30 08:59:43;;;;;;;1999.90;999.90;;;28.70;92.90;;;;;;5037779;28;20061;-71
2023/06/30 09:02:11;;;;;;;1999.90;999.90;;;28.20;92.70;;;;;;5021494;28;20091;-71
2023/06/30 09:04:38;;;;;;;1999.90;999.90;;;28.70;91.90;;;;;;4994430;28;20492;-73
2023/06/30 09:07:07;;;;;;;1999.90;999.90;;;28.90;93.00;;;;;;4987148;28;20091;-72
2023/06/30 09:09:45;;;;;;;1999.90;999.90;;;28.30;92.20;;;;;;4995769;28;20116;-72
2023/06/30 09:12:11;;;;;;;1999.90;999.90;;;28.00;91.50;;;;;;4996265;28;20030;-72
2023/06/30 09:14:40;;;;;;;1999.90;999.90;;;28.10;91.30;;;;;;4997749;28;20080;-71
2023/06/30 09:17:06;;;;;;;1999.90;999.90;;;27.50;92.10;;;;;;4991680;28;20036;-71
2023/06/30 09:19:32;;;;;;;1999.90;999.90;;;27.70;93.40;;;;;;4992717;28;20540;-71
2023/06/30 09:21:57;;;;;;;1999.90;999.90;;;28.00;93.90;;;;;;4996145;28;20071;-71
2023/06/30 09:24:23;;;;;;;1999.90;999.90;;;27.80;93.30;;;;;;4994010;28;20028;-71
2023/06/30 09:26:49;;;;;;;1999.90;999.90;;;28.20;93.20;;;;;;4992945;28;20048;-71
2023/06/30 09:29:18;;;;;;;1999.90;999.90;;;27.90;93.00;;;;;;4996895;28;20017;-71
2023/06/30 09:31:44;;;;;;;1999.90;999.90;;;26.50;94.20;;;;;;5001626;28;20585;-71
2023/06/30 09:34:11;;;;;;;1999.90;999.90;;;25.80;96.10;;;;;;5000420;28;20132;-72
2023/06/30 09:36:45;;;;;;;1999.90;999.90;;;25.40;97.40;;;;;;4995711;28;20765;-71
2023/06/30 09:39:10;;;;;;;1999.90;999.90;;;25.60;96.70;;;;;;5002394;28;20048;-72
2023/06/30 09:41:36;;;;;;;1999.90;999.90;;;25.10;98.30;;;;;;5015022;28;20463;-71
2023/06/30 09:44:04;;;;;;;1999.90;999.90;;;24.20;98.80;;;;;;5022460;28;20044;-72
2023/06/30 09:46:30;;;;;;;1999.90;999.90;;;24.00;98.70;;;;;;5009377;28;20800;-71
2023/06/30 09:48:55;;;;;;;1999.90;999.90;;;24.00;99.90;;;;;;5007746;28;20092;-71
2023/06/30 09:51:22;;;;;;;1999.90;999.90;;;23.90;99.90;;;;;;5006032;28;20524;-71
2023/06/30 09:53:52;;;;;;;1999.90;999.90;;;24.20;99.90;;;;;;5009689;28;20044;-70
2023/06/30 09:56:21;;;;;;;1999.90;999.90;;;24.30;99.50;;;;;;5012563;28;20030;-70
2023/06/30 09:58:47;;;;;;;1999.90;999.90;;;24.60;99.50;;;;;;5008941;28;20045;-73
2023/06/30 10:01:19;;;;;;;1999.90;999.90;;;25.40;98.90;;;;;;5010495;28;20036;-71
2023/06/30 10:03:48;;;;;;;1999.90;999.90;;;25.30;98.30;;;;;;5014114;28;20039;-70
2023/06/30 10:06:21;;;;;;;1999.90;999.90;;;24.40;97.80;;;;;;5011454;28;20028;-73
2023/06/30 10:08:49;;;;;;;1999.90;999.90;;;24.20;99.60;;;;;;5012364;28;20876;-70
2023/06/30 10:11:15;;;;;;;1999.90;999.90;;;24.10;99.90;;;;;;5019423;28;20143;-71
2023/06/30 10:13:45;;;;;;;1999.90;999.90;;;25.00;99.60;;;;;;5016131;28;20575;-70
2023/06/30 10:16:11;;;;;;;1999.90;999.90;;;25.60;98.20;;;;;;5009726;28;20355;-71
2023/06/30 10:18:44;;;;;;;1999.90;999.90;;;26.40;96.10;;;;;;5013044;28;20104;-70
2023/06/30 10:21:10;;;;;;;1999.90;999.90;;;27.40;95.10;;;;;;5019249;28;20421;-71
2023/06/30 10:23:37;;;;;;;1999.90;999.90;;;26.80;96.00;;;;;;5013365;28;20037;-71
2023/06/30 10:26:06;;;;;;;1999.90;999.90;;;27.10;96.10;;;;;;5016822;28;20025;-73
2023/06/30 10:28:35;;;;;;;1999.90;999.90;;;26.50;95.10;;;;;;5009736;28;20030;-71
2023/06/30 10:31:02;;;;;;;1999.90;999.90;;;27.00;94.20;;;;;;5019771;28;20350;-71
2023/06/30 10:33:28;;;;;;;1999.90;999.90;;;26.80;95.30;;;;;;5012889;28;20107;-71
2023/06/30 10:35:55;;;;;;;1999.90;999.90;;;26.80;94.70;;;;;;5008277;28;20124;-72
2023/06/30 10:38:21;;;;;;;1999.90;999.90;;;26.60;94.40;;;;;;5014398;28;20107;-73
2023/06/30 10:40:47;;;;;;;1999.90;999.90;;;25.10;96.20;;;;;;5007491;28;20226;-71
2023/06/30 10:43:13;;;;;;;1999.90;999.90;;;23.50;98.60;;;;;;5020744;28;20485;-71
2023/06/30 10:46:06;;;;;;;1999.90;999.90;;;22.70;99.30;;;;;;5009243;28;20434;-71
2023/06/30 10:48:32;;;;;;;1999.90;999.90;;;23.50;99.10;;;;;;5001335;28;20471;-70
2023/06/30 10:50:57;;;;;;;1999.90;999.90;;;24.10;97.50;;;;;;5006274;28;20040;-71
2023/06/30 10:53:25;;;;;;;1999.90;999.90;;;25.20;97.50;;;;;;5019572;28;20156;-71
2023/06/30 10:55:56;;;;;;;1999.90;999.90;;;24.90;97.00;;;;;;5005927;28;20717;-71
2023/06/30 10:58:23;;;;;;;1999.90;999.90;;;24.20;95.90;;;;;;5009494;28;20037;-72
2023/06/30 11:01:06;;;;;;;1999.90;999.90;;;24.20;96.40;;;;;;5017984;28;20456;-71
2023/06/30 11:04:10;;;;;;;1999.90;999.90;;;24.50;96.50;;;;;;5014581;28;20148;-71
2023/06/30 11:06:36;;;;;;;1999.90;999.90;;;24.80;97.60;;;;;;5019425;28;20732;-71
2023/06/30 11:09:09;;;;;;;1999.90;999.90;;;24.70;99.70;;;;;;5018257;28;20111;-71
2023/06/30 11:11:48;;;;;;;1999.90;999.90;;;24.20;99.80;;;;;;5020340;28;20018;-71
2023/06/30 11:14:14;;;;;;;1999.90;999.90;;;23.80;99.90;;;;;;5018626;28;20502;-72
2023/06/30 11:17:02;;;;;;;1999.90;999.90;;;23.50;99.90;;;;;;5016926;28;20032;-72
2023/06/30 11:19:28;;;;;;;1999.90;999.90;;;24.00;99.90;;;;;;5023755;28;20532;-70
2023/06/30 11:22:22;;;;;;;1999.90;999.90;;;23.80;99.90;;;;;;5021505;28;20114;-70
2023/06/30 11:24:49;;;;;;;1999.90;999.90;;;24.00;99.90;;;;;;5000567;28;20122;-70
2023/06/30 11:27:15;;;;;;;1999.90;999.90;;;23.70;99.90;;;;;;5021540;28;20131;-70
2023/06/30 11:29:41;;;;;;;1999.90;999.90;;;23.50;99.90;;;;;;5006946;28;20529;-71
2023/06/30 11:32:08;;;;;;;1999.90;999.90;;;23.60;99.90;;;;;;5008256;28;20125;-68
2023/06/30 11:34:34;;;;;;;1999.90;999.90;;;23.70;99.90;;;;;;5006493;28;20037;-69
2023/06/30 11:37:05;;;;;;;1999.90;999.90;;;23.40;99.90;;;;;;4990238;28;20391;-68
2023/06/30 11:39:36;;;;;;;1999.90;999.90;;;23.70;99.90;;;;;;5005127;28;20033;-68
2023/06/30 11:42:02;;;;;;;1999.90;999.90;;;23.70;99.90;;;;;;4996246;28;20036;-71
2023/06/30 11:44:28;;;;;;;1999.90;999.90;;;23.20;99.90;;;;;;5003977;28;20044;-70
2023/06/30 11:46:55;;;;;;;1999.90;999.90;;;23.10;99.90;;;;;;5000271;28;20198;-70
2023/06/30 11:49:20;;;;;;;1999.90;999.90;;;22.90;99.90;;;;;;4994165;28;20471;-70
2023/06/30 11:51:47;;;;;;;1999.90;999.90;;;23.20;99.90;;;;;;4992014;28;20030;-70
2023/06/30 11:54:14;;;;;;;1999.90;999.90;;;23.40;99.90;;;;;;4996424;28;20037;-70
2023/06/30 11:56:39;;;;;;;1999.90;999.90;;;23.70;99.90;;;;;;4991064;28;20432;-70
2023/06/30 11:59:05;;;;;;;1999.90;999.90;;;24.10;99.90;;;;;;4996882;28;20382;-70